sensor_id;sensor_type;location;lat;lon;timestamp;temperature;humidity
30134;DHT22;16946;49.984;10.672;2023-07-31T00:00:29;18.70;82.50
30134;DHT22;16946;49.984;10.672;2023-07-31T00:01:00;18.70;83.40
30134;DHT22;16946;49.984;10.672;2023-07-31T00:01:30;18.70;1.00
30134;DHT22;16946;49.984;10.672;2023-07-31T00:02:01;18.70;27.40
30134;DHT22;16946;49.984;10.672;2023-07-31T00:02:32;18.70;73.80
30134;DHT22;16946;49.984;10.672;2023-07-31T00:03:02;18.70;46.30
30134;DHT22;16946;49.984;10.672;2023-07-31T00:03:33;18.70;7.90
30134;DHT22;16946;49.984;10.672;2023-07-31T00:04:04;18.70;67.80
30134;DHT22;16946;49.984;10.672;2023-07-31T00:04:34;18.70;85.60
30134;DHT22;16946;49.984;10.672;2023-07-31T00:05:05;18.60;51.80
30134;DHT22;16946;49.984;10.672;2023-07-31T00:05:35;18.70;99.90
30134;DHT22;16946;49.984;10.672;2023-07-31T00:06:06;18.70;99.90
30134;DHT22;16946;49.984;10.672;2023-07-31T00:06:36;18.60;99.90
30134;DHT22;16946;49.984;10.672;2023-07-31T00:07:07;18.60;99.90
30134;DHT22;16946;49.984;10.672;2023-07-31T00:07:38;18.60;99.90
30134;DHT22;16946;49.984;10.672;2023-07-31T00:08:09;18.60;99.90
30134;DHT22;16946;49.984;10.672;2023-07-31T00:08:40;18.60;99.90
30134;DHT22;16946;49.984;10.672;2023-07-31T00:09:10;18.60;99.90
30134;DHT22;16946;49.984;10.672;2023-07-31T00:09:41;18.50;99.90
30134;DHT22;16946;49.984;10.672;2023-07-31T00:10:11;18.50;99.90
30134;DHT22;16946;49.984;10.672;2023-07-31T00:10:42;18.50;99.90
30134;DHT22;16946;49.984;10.672;2023-07-31T00:11:12;18.50;99.90
30134;DHT22;16946;49.984;10.672;2023-07-31T00:11:43;18.50;99.90
30134;DHT22;16946;49.984;10.672;2023-07-31T00:12:13;18.40;99.90
30134;DHT22;16946;49.984;10.672;2023-07-31T00:12:45;18.30;99.90
30134;DHT22;16946;49.984;10.672;2023-07-31T00:13:16;18.30;99.90
30134;DHT22;16946;49.984;10.672;2023-07-31T00:13:46;18.30;99.90
30134;DHT22;16946;49.984;10.672;2023-07-31T00:14:17;18.20;1.00
30134;DHT22;16946;49.984;10.672;2023-07-31T00:14:47;18.30;1.00
30134;DHT22;16946;49.984;10.672;2023-07-31T00:15:18;18.20;1.00
30134;DHT22;16946;49.984;10.672;2023-07-31T00:15:49;18.20;1.00
30134;DHT22;16946;49.984;10.672;2023-07-31T00:16:19;18.20;1.00
30134;DHT22;16946;49.984;10.672;2023-07-31T00:16:50;18.20;5.00
30134;DHT22;16946;49.984;10.672;2023-07-31T00:17:21;18.20;19.60
30134;DHT22;16946;49.984;10.672;2023-07-31T00:17:51;18.20;21.00
30134;DHT22;16946;49.984;10.672;2023-07-31T00:18:22;18.20;11.00
30134;DHT22;16946;49.984;10.672;2023-07-31T00:18:52;18.20;19.10
30134;DHT22;16946;49.984;10.672;2023-07-31T00:19:23;18.20;27.70
30134;DHT22;16946;49.984;10.672;2023-07-31T00:19:53;18.20;50.40
30134;DHT22;16946;49.984;10.672;2023-07-31T00:20:24;18.10;56.00
30134;DHT22;16946;49.984;10.672;2023-07-31T00:20:55;18.20;68.00
30134;DHT22;16946;49.984;10.672;2023-07-31T00:21:25;18.10;88.50
30134;DHT22;16946;49.984;10.672;2023-07-31T00:21:56;18.10;96.80
30134;DHT22;16946;49.984;10.672;2023-07-31T00:22:26;18.20;95.40
30134;DHT22;16946;49.984;10.672;2023-07-31T00:22:57;18.20;99.90
30134;DHT22;16946;49.984;10.672;2023-07-31T00:23:27;18.20;93.10
30134;DHT22;16946;49.984;10.672;2023-07-31T00:23:58;18.30;97.40
30134;DHT22;16946;49.984;10.672;2023-07-31T00:24:28;18.20;99.90
30134;DHT22;16946;49.984;10.672;2023-07-31T00:24:59;18.20;99.90
30134;DHT22;16946;49.984;10.672;2023-07-31T00:25:30;18.20;99.90
30134;DHT22;16946;49.984;10.672;2023-07-31T00:26:01;18.20;99.90
30134;DHT22;16946;49.984;10.672;2023-07-31T00:26:31;18.20;99.90
30134;DHT22;16946;49.984;10.672;2023-07-31T00:27:02;18.10;99.90
30134;DHT22;16946;49.984;10.672;2023-07-31T00:27:33;18.20;99.90
30134;DHT22;16946;49.984;10.672;2023-07-31T00:28:04;18.20;99.90
30134;DHT22;16946;49.984;10.672;2023-07-31T00:28:34;18.20;99.90
30134;DHT22;16946;49.984;10.672;2023-07-31T00:29:05;18.20;99.90
30134;DHT22;16946;49.984;10.672;2023-07-31T00:29:35;18.20;99.90
30134;DHT22;16946;49.984;10.672;2023-07-31T00:30:06;18.30;99.90
30134;DHT22;16946;49.984;10.672;2023-07-31T00:30:37;18.20;99.90
30134;DHT22;16946;49.984;10.672;2023-07-31T00:31:08;18.30;99.90
30134;DHT22;16946;49.984;10.672;2023-07-31T00:31:38;18.30;99.90
30134;DHT22;16946;49.984;10.672;2023-07-31T00:32:09;18.30;97.10
30134;DHT22;16946;49.984;10.672;2023-07-31T00:32:40;18.30;99.90
30134;DHT22;16946;49.984;10.672;2023-07-31T00:33:10;18.30;99.90
30134;DHT22;16946;49.984;10.672;2023-07-31T00:33:41;18.30;97.30
30134;DHT22;16946;49.984;10.672;2023-07-31T00:34:11;18.40;99.90
30134;DHT22;16946;49.984;10.672;2023-07-31T00:34:42;18.40;99.90
30134;DHT22;16946;49.984;10.672;2023-07-31T00:35:12;18.30;99.90
30134;DHT22;16946;49.984;10.672;2023-07-31T00:35:43;18.30;99.90
30134;DHT22;16946;49.984;10.672;2023-07-31T00:36:13;18.30;99.90
30134;DHT22;16946;49.984;10.672;2023-07-31T00:36:44;18.20;99.90
30134;DHT22;16946;49.984;10.672;2023-07-31T00:37:14;18.20;99.90
30134;DHT22;16946;49.984;10.672;2023-07-31T00:37:45;18.10;99.90
30134;DHT22;16946;49.984;10.672;2023-07-31T00:38:16;18.20;99.90
30134;DHT22;16946;49.984;10.672;2023-07-31T00:38:47;18.30;99.90
30134;DHT22;16946;49.984;10.672;2023-07-31T00:39:17;18.30;99.90
30134;DHT22;16946;49.984;10.672;2023-07-31T00:39:48;18.20;99.90
30134;DHT22;16946;49.984;10.672;2023-07-31T00:40:18;18.20;99.90
30134;DHT22;16946;49.984;10.672;2023-07-31T00:40:49;18.20;99.90
30134;DHT22;16946;49.984;10.672;2023-07-31T00:41:19;18.10;99.90
30134;DHT22;16946;49.984;10.672;2023-07-31T00:41:50;18.10;99.90
30134;DHT22;16946;49.984;10.672;2023-07-31T00:42:20;18.10;99.90
30134;DHT22;16946;49.984;10.672;2023-07-31T00:42:51;18.20;99.90
30134;DHT22;16946;49.984;10.672;2023-07-31T00:43:21;18.20;99.90
30134;DHT22;16946;49.984;10.672;2023-07-31T00:43:53;18.20;99.90
30134;DHT22;16946;49.984;10.672;2023-07-31T00:44:23;18.30;99.90
30134;DHT22;16946;49.984;10.672;2023-07-31T00:44:54;18.30;99.90
30134;DHT22;16946;49.984;10.672;2023-07-31T00:45:25;18.30;66.80
30134;DHT22;16946;49.984;10.672;2023-07-31T00:45:57;18.30;95.20
30134;DHT22;16946;49.984;10.672;2023-07-31T00:46:27;18.30;99.90
30134;DHT22;16946;49.984;10.672;2023-07-31T00:46:58;18.30;99.90
30134;DHT22;16946;49.984;10.672;2023-07-31T00:47:29;18.40;99.90
30134;DHT22;16946;49.984;10.672;2023-07-31T00:48:00;18.40;91.70
30134;DHT22;16946;49.984;10.672;2023-07-31T00:48:32;18.30;96.50
30134;DHT22;16946;49.984;10.672;2023-07-31T00:49:03;18.30;51.90
30134;DHT22;16946;49.984;10.672;2023-07-31T00:49:35;18.30;74.20
30134;DHT22;16946;49.984;10.672;2023-07-31T00:50:06;18.30;80.10
30134;DHT22;16946;49.984;10.672;2023-07-31T00:50:37;18.20;85.50
30134;DHT22;16946;49.984;10.672;2023-07-31T00:51:09;18.20;99.90
30134;DHT22;16946;49.984;10.672;2023-07-31T00:51:40;18.20;99.90
30134;DHT22;16946;49.984;10.672;2023-07-31T00:52:11;18.10;99.90
30134;DHT22;16946;49.984;10.672;2023-07-31T00:52:41;18.10;99.90
30134;DHT22;16946;49.984;10.672;2023-07-31T00:53:13;18.20;99.90
30134;DHT22;16946;49.984;10.672;2023-07-31T00:53:44;18.20;99.90
30134;DHT22;16946;49.984;10.672;2023-07-31T00:54:15;18.20;99.90
30134;DHT22;16946;49.984;10.672;2023-07-31T00:54:46;18.20;99.90
30134;DHT22;16946;49.984;10.672;2023-07-31T00:55:17;18.20;99.90
30134;DHT22;16946;49.984;10.672;2023-07-31T00:55:48;18.20;99.90
30134;DHT22;16946;49.984;10.672;2023-07-31T00:56:18;18.20;99.90
30134;DHT22;16946;49.984;10.672;2023-07-31T00:56:50;18.20;99.90
30134;DHT22;16946;49.984;10.672;2023-07-31T00:57:23;18.20;99.90
30134;DHT22;16946;49.984;10.672;2023-07-31T00:57:53;18.10;99.90
30134;DHT22;16946;49.984;10.672;2023-07-31T00:58:26;18.10;99.90
30134;DHT22;16946;49.984;10.672;2023-07-31T00:58:56;18.10;99.90
30134;DHT22;16946;49.984;10.672;2023-07-31T00:59:27;18.10;99.90
30134;DHT22;16946;49.984;10.672;2023-07-31T00:59:57;18.10;99.90
30134;DHT22;16946;49.984;10.672;2023-07-31T01:00:28;18.10;99.90
30134;DHT22;16946;49.984;10.672;2023-07-31T01:00:58;18.10;99.90
30134;DHT22;16946;49.984;10.672;2023-07-31T01:01:29;18.10;99.90
30134;DHT22;16946;49.984;10.672;2023-07-31T01:02:00;18.10;99.90
30134;DHT22;16946;49.984;10.672;2023-07-31T01:02:31;18.10;99.90
30134;DHT22;16946;49.984;10.672;2023-07-31T01:03:02;18.10;99.90
30134;DHT22;16946;49.984;10.672;2023-07-31T01:03:33;18.00;99.90
30134;DHT22;16946;49.984;10.672;2023-07-31T01:04:04;18.00;99.90
30134;DHT22;16946;49.984;10.672;2023-07-31T01:04:34;18.10;99.90
30134;DHT22;16946;49.984;10.672;2023-07-31T01:05:05;18.00;99.90
30134;DHT22;16946;49.984;10.672;2023-07-31T01:06:36;18.10;99.90
30134;DHT22;16946;49.984;10.672;2023-07-31T01:08:08;18.20;99.90
30134;DHT22;16946;49.984;10.672;2023-07-31T01:09:47;18.20;99.90
30134;DHT22;16946;49.984;10.672;2023-07-31T01:10:26;18.20;99.90
30134;DHT22;16946;49.984;10.672;2023-07-31T01:11:07;18.20;99.90
30134;DHT22;16946;49.984;10.672;2023-07-31T01:11:51;18.10;99.90
30134;DHT22;16946;49.984;10.672;2023-07-31T01:12:23;18.20;99.90
30134;DHT22;16946;49.984;10.672;2023-07-31T01:12:56;18.20;99.90
30134;DHT22;16946;49.984;10.672;2023-07-31T01:13:28;18.20;99.90
30134;DHT22;16946;49.984;10.672;2023-07-31T01:13:59;18.20;99.90
30134;DHT22;16946;49.984;10.672;2023-07-31T01:14:30;18.20;99.90
30134;DHT22;16946;49.984;10.672;2023-07-31T01:15:07;18.20;99.90
30134;DHT22;16946;49.984;10.672;2023-07-31T01:15:41;18.20;99.90
30134;DHT22;16946;49.984;10.672;2023-07-31T01:16:11;18.20;99.90
30134;DHT22;16946;49.984;10.672;2023-07-31T01:16:42;18.20;99.90
30134;DHT22;16946;49.984;10.672;2023-07-31T01:17:13;18.20;99.90
30134;DHT22;16946;49.984;10.672;2023-07-31T01:17:43;18.20;99.90
30134;DHT22;16946;49.984;10.672;2023-07-31T01:18:14;18.20;99.90
30134;DHT22;16946;49.984;10.672;2023-07-31T01:18:45;18.20;99.90
30134;DHT22;16946;49.984;10.672;2023-07-31T01:19:18;18.20;99.90
30134;DHT22;16946;49.984;10.672;2023-07-31T01:19:53;18.20;99.90
30134;DHT22;16946;49.984;10.672;2023-07-31T01:20:25;18.20;99.90
30134;DHT22;16946;49.984;10.672;2023-07-31T01:21:06;18.10;99.90
30134;DHT22;16946;49.984;10.672;2023-07-31T01:23:41;18.00;99.90
30134;DHT22;16946;49.984;10.672;2023-07-31T01:26:34;18.10;99.90
30134;DHT22;16946;49.984;10.672;2023-07-31T01:27:12;18.10;99.90
30134;DHT22;16946;49.984;10.672;2023-07-31T01:28:09;18.10;99.90
30134;DHT22;16946;49.984;10.672;2023-07-31T01:28:55;18.10;99.90
30134;DHT22;16946;49.984;10.672;2023-07-31T01:29:41;18.10;99.90
30134;DHT22;16946;49.984;10.672;2023-07-31T01:30:17;18.10;99.90
30134;DHT22;16946;49.984;10.672;2023-07-31T01:30:50;18.10;99.90
30134;DHT22;16946;49.984;10.672;2023-07-31T01:31:23;18.20;99.90
30134;DHT22;16946;49.984;10.672;2023-07-31T01:31:55;18.10;99.90
30134;DHT22;16946;49.984;10.672;2023-07-31T01:32:28;18.20;99.90
30134;DHT22;16946;49.984;10.672;2023-07-31T01:33:00;18.10;99.90
30134;DHT22;16946;49.984;10.672;2023-07-31T01:33:32;18.10;99.90
30134;DHT22;16946;49.984;10.672;2023-07-31T01:34:03;18.10;99.90
30134;DHT22;16946;49.984;10.672;2023-07-31T01:34:34;18.10;99.90
30134;DHT22;16946;49.984;10.672;2023-07-31T01:35:06;18.00;99.90
30134;DHT22;16946;49.984;10.672;2023-07-31T01:35:37;18.00;99.90
30134;DHT22;16946;49.984;10.672;2023-07-31T01:36:09;18.00;99.90
30134;DHT22;16946;49.984;10.672;2023-07-31T01:36:40;18.00;99.90
30134;DHT22;16946;49.984;10.672;2023-07-31T01:37:11;18.00;99.90
30134;DHT22;16946;49.984;10.672;2023-07-31T01:37:41;18.00;99.90
30134;DHT22;16946;49.984;10.672;2023-07-31T01:38:12;17.90;99.90
30134;DHT22;16946;49.984;10.672;2023-07-31T01:38:42;18.00;99.90
30134;DHT22;16946;49.984;10.672;2023-07-31T01:39:13;18.00;99.90
30134;DHT22;16946;49.984;10.672;2023-07-31T01:39:45;18.00;99.90
30134;DHT22;16946;49.984;10.672;2023-07-31T01:40:16;18.00;99.90
30134;DHT22;16946;49.984;10.672;2023-07-31T01:40:51;18.00;99.90
30134;DHT22;16946;49.984;10.672;2023-07-31T01:41:22;18.00;99.90
30134;DHT22;16946;49.984;10.672;2023-07-31T01:41:53;17.90;99.90
30134;DHT22;16946;49.984;10.672;2023-07-31T01:42:23;17.90;99.90
30134;DHT22;16946;49.984;10.672;2023-07-31T01:42:54;18.00;99.90
30134;DHT22;16946;49.984;10.672;2023-07-31T01:43:24;18.00;99.90
30134;DHT22;16946;49.984;10.672;2023-07-31T01:43:55;18.00;99.90
30134;DHT22;16946;49.984;10.672;2023-07-31T01:44:26;18.00;99.90
30134;DHT22;16946;49.984;10.672;2023-07-31T01:44:57;18.00;99.90
30134;DHT22;16946;49.984;10.672;2023-07-31T01:45:27;18.00;99.90
30134;DHT22;16946;49.984;10.672;2023-07-31T01:45:58;18.00;99.90
30134;DHT22;16946;49.984;10.672;2023-07-31T01:46:29;18.10;99.90
30134;DHT22;16946;49.984;10.672;2023-07-31T01:46:59;18.10;99.90
30134;DHT22;16946;49.984;10.672;2023-07-31T01:47:30;18.00;99.90
30134;DHT22;16946;49.984;10.672;2023-07-31T01:48:01;18.00;99.90
30134;DHT22;16946;49.984;10.672;2023-07-31T01:48:31;18.00;99.90
30134;DHT22;16946;49.984;10.672;2023-07-31T01:49:06;18.00;99.90
30134;DHT22;16946;49.984;10.672;2023-07-31T01:49:36;18.00;99.90
30134;DHT22;16946;49.984;10.672;2023-07-31T01:50:07;18.00;99.90
30134;DHT22;16946;49.984;10.672;2023-07-31T01:50:38;18.00;99.90
30134;DHT22;16946;49.984;10.672;2023-07-31T01:51:08;18.00;99.90
30134;DHT22;16946;49.984;10.672;2023-07-31T01:51:39;18.00;99.90
30134;DHT22;16946;49.984;10.672;2023-07-31T01:52:09;18.00;99.90
30134;DHT22;16946;49.984;10.672;2023-07-31T01:52:40;18.00;99.90
30134;DHT22;16946;49.984;10.672;2023-07-31T01:53:10;17.90;99.90
30134;DHT22;16946;49.984;10.672;2023-07-31T01:53:42;17.90;99.90
30134;DHT22;16946;49.984;10.672;2023-07-31T01:54:13;17.90;99.90
30134;DHT22;16946;49.984;10.672;2023-07-31T01:54:43;17.90;99.90
30134;DHT22;16946;49.984;10.672;2023-07-31T01:55:14;17.90;99.90
30134;DHT22;16946;49.984;10.672;2023-07-31T01:55:45;17.90;99.90
30134;DHT22;16946;49.984;10.672;2023-07-31T01:56:15;17.90;99.90
30134;DHT22;16946;49.984;10.672;2023-07-31T01:56:46;17.90;99.90
30134;DHT22;16946;49.984;10.672;2023-07-31T01:57:16;17.90;99.90
30134;DHT22;16946;49.984;10.672;2023-07-31T01:57:47;17.90;99.90
30134;DHT22;16946;49.984;10.672;2023-07-31T01:58:18;17.90;99.90
30134;DHT22;16946;49.984;10.672;2023-07-31T01:58:49;17.90;99.90
30134;DHT22;16946;49.984;10.672;2023-07-31T01:59:19;17.90;99.90
30134;DHT22;16946;49.984;10.672;2023-07-31T01:59:50;17.90;99.90
30134;DHT22;16946;49.984;10.672;2023-07-31T02:00:21;17.90;99.90
30134;DHT22;16946;49.984;10.672;2023-07-31T02:00:51;17.90;99.90
30134;DHT22;16946;49.984;10.672;2023-07-31T02:01:22;17.90;99.90
30134;DHT22;16946;49.984;10.672;2023-07-31T02:01:52;17.90;99.90
30134;DHT22;16946;49.984;10.672;2023-07-31T02:02:23;17.90;99.90
30134;DHT22;16946;49.984;10.672;2023-07-31T02:02:53;17.90;99.90
30134;DHT22;16946;49.984;10.672;2023-07-31T02:03:24;17.90;99.90
30134;DHT22;16946;49.984;10.672;2023-07-31T02:03:54;17.90;99.90
30134;DHT22;16946;49.984;10.672;2023-07-31T02:04:25;17.90;99.90
30134;DHT22;16946;49.984;10.672;2023-07-31T02:04:56;17.90;99.90
30134;DHT22;16946;49.984;10.672;2023-07-31T02:05:26;18.00;99.90
30134;DHT22;16946;49.984;10.672;2023-07-31T02:05:57;17.90;99.90
30134;DHT22;16946;49.984;10.672;2023-07-31T02:06:27;18.00;99.90
30134;DHT22;16946;49.984;10.672;2023-07-31T02:06:58;17.90;99.90
30134;DHT22;16946;49.984;10.672;2023-07-31T02:07:29;17.90;99.90
30134;DHT22;16946;49.984;10.672;2023-07-31T02:07:59;17.90;99.90
30134;DHT22;16946;49.984;10.672;2023-07-31T02:08:30;17.90;99.90
30134;DHT22;16946;49.984;10.672;2023-07-31T02:09:00;17.80;99.90
30134;DHT22;16946;49.984;10.672;2023-07-31T02:09:31;17.90;99.90
30134;DHT22;16946;49.984;10.672;2023-07-31T02:10:02;17.90;99.90
30134;DHT22;16946;49.984;10.672;2023-07-31T02:10:32;17.90;99.90
30134;DHT22;16946;49.984;10.672;2023-07-31T02:11:03;17.80;99.90
30134;DHT22;16946;49.984;10.672;2023-07-31T02:11:34;17.90;99.90
30134;DHT22;16946;49.984;10.672;2023-07-31T02:12:04;17.90;99.90
30134;DHT22;16946;49.984;10.672;2023-07-31T02:12:35;17.90;99.90
30134;DHT22;16946;49.984;10.672;2023-07-31T02:13:06;17.90;99.90
30134;DHT22;16946;49.984;10.672;2023-07-31T02:13:36;17.90;99.90
30134;DHT22;16946;49.984;10.672;2023-07-31T02:14:07;17.90;99.90
30134;DHT22;16946;49.984;10.672;2023-07-31T02:14:37;17.90;99.90
30134;DHT22;16946;49.984;10.672;2023-07-31T02:15:08;17.90;99.90
30134;DHT22;16946;49.984;10.672;2023-07-31T02:15:39;17.90;99.90
30134;DHT22;16946;49.984;10.672;2023-07-31T02:16:09;17.90;99.90
30134;DHT22;16946;49.984;10.672;2023-07-31T02:16:40;17.90;99.90
30134;DHT22;16946;49.984;10.672;2023-07-31T02:17:13;17.90;99.90
30134;DHT22;16946;49.984;10.672;2023-07-31T02:17:43;17.90;99.90
30134;DHT22;16946;49.984;10.672;2023-07-31T02:18:14;17.90;99.90
30134;DHT22;16946;49.984;10.672;2023-07-31T02:18:44;17.90;99.90
30134;DHT22;16946;49.984;10.672;2023-07-31T02:19:15;17.90;99.90
30134;DHT22;16946;49.984;10.672;2023-07-31T02:19:45;17.90;99.90
30134;DHT22;16946;49.984;10.672;2023-07-31T02:20:16;17.90;99.90
30134;DHT22;16946;49.984;10.672;2023-07-31T02:20:50;18.00;99.90
30134;DHT22;16946;49.984;10.672;2023-07-31T02:21:21;17.90;99.90
30134;DHT22;16946;49.984;10.672;2023-07-31T02:21:52;17.90;99.90
30134;DHT22;16946;49.984;10.672;2023-07-31T02:22:22;17.90;99.90
30134;DHT22;16946;49.984;10.672;2023-07-31T02:22:53;17.90;99.90
30134;DHT22;16946;49.984;10.672;2023-07-31T02:23:23;17.90;99.90
30134;DHT22;16946;49.984;10.672;2023-07-31T02:23:54;17.90;99.90
30134;DHT22;16946;49.984;10.672;2023-07-31T02:24:25;17.90;99.90
30134;DHT22;16946;49.984;10.672;2023-07-31T02:24:56;17.90;99.90
30134;DHT22;16946;49.984;10.672;2023-07-31T02:25:26;18.00;99.90
30134;DHT22;16946;49.984;10.672;2023-07-31T02:25:57;17.90;99.90
30134;DHT22;16946;49.984;10.672;2023-07-31T02:26:27;17.90;99.90
30134;DHT22;16946;49.984;10.672;2023-07-31T02:26:58;17.90;99.90
30134;DHT22;16946;49.984;10.672;2023-07-31T02:27:28;17.90;99.90
30134;DHT22;16946;49.984;10.672;2023-07-31T02:27:59;17.90;99.90
30134;DHT22;16946;49.984;10.672;2023-07-31T02:28:30;17.90;99.90
30134;DHT22;16946;49.984;10.672;2023-07-31T02:29:00;17.90;99.90
30134;DHT22;16946;49.984;10.672;2023-07-31T02:29:31;17.90;99.90
30134;DHT22;16946;49.984;10.672;2023-07-31T02:30:01;17.90;99.90
30134;DHT22;16946;49.984;10.672;2023-07-31T02:30:32;17.90;99.90
30134;DHT22;16946;49.984;10.672;2023-07-31T02:31:02;17.90;99.90
30134;DHT22;16946;49.984;10.672;2023-07-31T02:31:33;18.00;99.90
30134;DHT22;16946;49.984;10.672;2023-07-31T02:32:04;17.90;99.90
30134;DHT22;16946;49.984;10.672;2023-07-31T02:32:35;17.90;99.90
30134;DHT22;16946;49.984;10.672;2023-07-31T02:33:05;17.90;99.90
30134;DHT22;16946;49.984;10.672;2023-07-31T02:33:36;17.90;99.90
30134;DHT22;16946;49.984;10.672;2023-07-31T02:34:06;17.90;99.90
30134;DHT22;16946;49.984;10.672;2023-07-31T02:34:37;17.90;99.90
30134;DHT22;16946;49.984;10.672;2023-07-31T02:35:07;17.90;99.90
30134;DHT22;16946;49.984;10.672;2023-07-31T02:35:38;17.90;99.90
30134;DHT22;16946;49.984;10.672;2023-07-31T02:36:09;17.90;99.90
30134;DHT22;16946;49.984;10.672;2023-07-31T02:36:39;17.90;99.90
30134;DHT22;16946;49.984;10.672;2023-07-31T02:37:10;17.90;99.90
30134;DHT22;16946;49.984;10.672;2023-07-31T02:37:43;18.00;99.90
30134;DHT22;16946;49.984;10.672;2023-07-31T02:38:14;18.00;99.90
30134;DHT22;16946;49.984;10.672;2023-07-31T02:38:44;17.90;99.90
30134;DHT22;16946;49.984;10.672;2023-07-31T02:39:15;17.90;99.90
30134;DHT22;16946;49.984;10.672;2023-07-31T02:39:45;18.00;99.90
30134;DHT22;16946;49.984;10.672;2023-07-31T02:40:16;18.00;99.90
30134;DHT22;16946;49.984;10.672;2023-07-31T02:40:47;17.90;99.90
30134;DHT22;16946;49.984;10.672;2023-07-31T02:41:18;17.90;99.90
30134;DHT22;16946;49.984;10.672;2023-07-31T02:41:49;17.90;99.90
30134;DHT22;16946;49.984;10.672;2023-07-31T02:42:19;17.90;99.90
30134;DHT22;16946;49.984;10.672;2023-07-31T02:42:50;17.90;99.90
30134;DHT22;16946;49.984;10.672;2023-07-31T02:43:20;17.90;99.90
30134;DHT22;16946;49.984;10.672;2023-07-31T02:43:51;17.90;99.90
30134;DHT22;16946;49.984;10.672;2023-07-31T02:44:21;17.90;99.90
30134;DHT22;16946;49.984;10.672;2023-07-31T02:44:52;17.90;99.90
30134;DHT22;16946;49.984;10.672;2023-07-31T02:45:26;17.90;99.90
30134;DHT22;16946;49.984;10.672;2023-07-31T02:45:56;17.90;99.90
30134;DHT22;16946;49.984;10.672;2023-07-31T02:46:27;17.90;99.90
30134;DHT22;16946;49.984;10.672;2023-07-31T02:46:57;17.90;99.90
30134;DHT22;16946;49.984;10.672;2023-07-31T02:47:28;17.80;99.90
30134;DHT22;16946;49.984;10.672;2023-07-31T02:47:59;17.90;99.90
30134;DHT22;16946;49.984;10.672;2023-07-31T02:48:29;17.90;99.90
30134;DHT22;16946;49.984;10.672;2023-07-31T02:49:00;17.90;99.90
30134;DHT22;16946;49.984;10.672;2023-07-31T02:49:30;17.90;99.90
30134;DHT22;16946;49.984;10.672;2023-07-31T02:50:02;17.80;99.90
30134;DHT22;16946;49.984;10.672;2023-07-31T02:50:33;17.90;99.90
30134;DHT22;16946;49.984;10.672;2023-07-31T02:51:04;17.80;99.90
30134;DHT22;16946;49.984;10.672;2023-07-31T02:51:34;17.80;99.90
30134;DHT22;16946;49.984;10.672;2023-07-31T02:52:05;17.80;99.90
30134;DHT22;16946;49.984;10.672;2023-07-31T02:52:36;17.80;99.90
30134;DHT22;16946;49.984;10.672;2023-07-31T02:53:06;17.80;99.90
30134;DHT22;16946;49.984;10.672;2023-07-31T02:53:37;17.80;99.90
30134;DHT22;16946;49.984;10.672;2023-07-31T02:54:07;17.90;99.90
30134;DHT22;16946;49.984;10.672;2023-07-31T02:54:38;17.90;99.90
30134;DHT22;16946;49.984;10.672;2023-07-31T02:55:08;17.90;99.90
30134;DHT22;16946;49.984;10.672;2023-07-31T02:55:40;17.90;99.90
30134;DHT22;16946;49.984;10.672;2023-07-31T02:56:11;17.90;99.90
30134;DHT22;16946;49.984;10.672;2023-07-31T02:56:41;17.90;99.90
30134;DHT22;16946;49.984;10.672;2023-07-31T02:57:12;17.90;99.90
30134;DHT22;16946;49.984;10.672;2023-07-31T02:57:42;17.90;99.90
30134;DHT22;16946;49.984;10.672;2023-07-31T02:58:13;18.00;99.90
30134;DHT22;16946;49.984;10.672;2023-07-31T02:58:43;18.00;99.90
30134;DHT22;16946;49.984;10.672;2023-07-31T02:59:14;18.00;99.90
30134;DHT22;16946;49.984;10.672;2023-07-31T02:59:44;18.10;99.90
30134;DHT22;16946;49.984;10.672;2023-07-31T03:00:15;18.10;99.90
30134;DHT22;16946;49.984;10.672;2023-07-31T03:00:45;18.10;99.90
30134;DHT22;16946;49.984;10.672;2023-07-31T03:01:16;18.10;99.90
30134;DHT22;16946;49.984;10.672;2023-07-31T03:01:46;18.10;99.90
30134;DHT22;16946;49.984;10.672;2023-07-31T03:02:17;18.10;99.90
30134;DHT22;16946;49.984;10.672;2023-07-31T03:02:48;18.10;99.90
30134;DHT22;16946;49.984;10.672;2023-07-31T03:03:18;18.10;99.90
30134;DHT22;16946;49.984;10.672;2023-07-31T03:03:49;18.00;99.90
30134;DHT22;16946;49.984;10.672;2023-07-31T03:04:19;18.00;99.90
30134;DHT22;16946;49.984;10.672;2023-07-31T03:04:50;18.00;99.90
30134;DHT22;16946;49.984;10.672;2023-07-31T03:05:20;18.00;99.90
30134;DHT22;16946;49.984;10.672;2023-07-31T03:05:51;18.00;99.90
30134;DHT22;16946;49.984;10.672;2023-07-31T03:06:21;18.00;99.90
30134;DHT22;16946;49.984;10.672;2023-07-31T03:06:52;18.00;99.90
30134;DHT22;16946;49.984;10.672;2023-07-31T03:07:22;17.90;99.90
30134;DHT22;16946;49.984;10.672;2023-07-31T03:07:53;17.90;99.90
30134;DHT22;16946;49.984;10.672;2023-07-31T03:08:24;17.90;99.90
30134;DHT22;16946;49.984;10.672;2023-07-31T03:08:54;17.90;99.90
30134;DHT22;16946;49.984;10.672;2023-07-31T03:09:25;17.90;99.90
30134;DHT22;16946;49.984;10.672;2023-07-31T03:09:56;17.90;99.90
30134;DHT22;16946;49.984;10.672;2023-07-31T03:10:27;17.90;99.90
30134;DHT22;16946;49.984;10.672;2023-07-31T03:10:57;17.90;99.90
30134;DHT22;16946;49.984;10.672;2023-07-31T03:11:28;17.90;99.90
30134;DHT22;16946;49.984;10.672;2023-07-31T03:11:58;17.90;99.90
30134;DHT22;16946;49.984;10.672;2023-07-31T03:12:29;17.90;99.90
30134;DHT22;16946;49.984;10.672;2023-07-31T03:12:59;17.90;99.90
30134;DHT22;16946;49.984;10.672;2023-07-31T03:13:30;17.80;99.90
30134;DHT22;16946;49.984;10.672;2023-07-31T03:14:00;17.80;99.90
30134;DHT22;16946;49.984;10.672;2023-07-31T03:14:31;17.80;99.90
30134;DHT22;16946;49.984;10.672;2023-07-31T03:15:01;17.90;99.90
30134;DHT22;16946;49.984;10.672;2023-07-31T03:15:32;17.80;99.90
30134;DHT22;16946;49.984;10.672;2023-07-31T03:16:03;17.80;99.90
30134;DHT22;16946;49.984;10.672;2023-07-31T03:16:33;17.90;99.90
30134;DHT22;16946;49.984;10.672;2023-07-31T03:17:04;17.90;99.90
30134;DHT22;16946;49.984;10.672;2023-07-31T03:17:34;17.90;99.90
30134;DHT22;16946;49.984;10.672;2023-07-31T03:18:05;17.90;99.90
30134;DHT22;16946;49.984;10.672;2023-07-31T03:18:36;17.90;99.90
30134;DHT22;16946;49.984;10.672;2023-07-31T03:19:06;18.00;99.90
30134;DHT22;16946;49.984;10.672;2023-07-31T03:19:37;17.90;99.90
30134;DHT22;16946;49.984;10.672;2023-07-31T03:20:08;17.90;99.90
30134;DHT22;16946;49.984;10.672;2023-07-31T03:20:42;17.90;99.90
30134;DHT22;16946;49.984;10.672;2023-07-31T03:21:14;17.90;99.90
30134;DHT22;16946;49.984;10.672;2023-07-31T03:21:45;17.90;99.90